createdAt,value
2018-08-10T00:00:16.017Z,98379.58
2018-08-10T00:02:45.036Z,98376.75
2018-08-10T00:05:13.987Z,98380.16
2018-08-10T00:07:42.837Z,98383.35
2018-08-10T00:10:13.617Z,98387.91
2018-08-10T00:12:42.551Z,98392.50
2018-08-10T00:15:13.146Z,98394.33
2018-08-10T00:17:42.351Z,98397.27
2018-08-10T00:20:13.850Z,98401.06
2018-08-10T00:22:42.826Z,98401.28
2018-08-10T00:25:16.834Z,98413.26
2018-08-10T00:27:47.040Z,98421.47
2018-08-10T00:30:17.249Z,98426.93
2018-08-10T00:32:47.288Z,98431.63
2018-08-10T00:35:16.677Z,98444.77
2018-08-10T00:37:47.215Z,98447.16
2018-08-10T00:40:20.604Z,98458.22
2018-08-10T00:42:49.202Z,98456.86
2018-08-10T00:45:19.438Z,98465.31
2018-08-10T00:47:48.775Z,98463.27
2018-08-10T00:50:18.442Z,98474.13
2018-08-10T00:52:47.967Z,98471.05
2018-08-10T00:55:18.413Z,98474.47
2018-08-10T00:57:47.735Z,98482.70
2018-08-10T01:00:18.822Z,98487.02
2018-08-10T01:02:47.734Z,98489.77
2018-08-10T01:05:16.677Z,98490.86
2018-08-10T01:07:45.318Z,98498.16
2018-08-10T01:10:16.197Z,98497.24
2018-08-10T01:12:44.782Z,98503.73
2018-08-10T01:15:15.264Z,98507.23
2018-08-10T01:17:44.606Z,98510.88
2018-08-10T01:20:18.529Z,98522.48
2018-08-10T01:22:52.432Z,98519.80
2018-08-10T01:25:22.503Z,98525.27
2018-08-10T01:27:55.308Z,98538.37
2018-08-10T01:30:24.486Z,98538.05
2018-08-10T01:32:54.102Z,98551.94
2018-08-10T01:35:23.641Z,98545.55
2018-08-10T01:37:53.138Z,98559.59
2018-08-10T01:40:22.744Z,98561.72
2018-08-10T01:42:51.620Z,98554.32
2018-08-10T01:45:21.116Z,98553.76
2018-08-10T01:47:50.605Z,98565.17
2018-08-10T01:50:19.617Z,98561.05
2018-08-10T01:52:48.938Z,98564.91
2018-08-10T01:55:17.783Z,98572.91
2018-08-10T01:57:47.236Z,98583.14
2018-08-10T02:00:16.456Z,98582.22
2018-08-10T02:02:46.044Z,98584.59
2018-08-10T02:05:16.008Z,98586.02
2018-08-10T02:07:45.063Z,98589.41
2018-08-10T02:10:16.667Z,98589.14
2018-08-10T02:12:46.161Z,98589.92
2018-08-10T02:15:16.914Z,98598.56
2018-08-10T02:17:44.873Z,98600.45
2018-08-10T02:20:16.172Z,98598.95
2018-08-10T02:22:45.112Z,98602.08
2018-08-10T02:25:15.432Z,98605.16
2018-08-10T02:27:46.048Z,98605.60
2018-08-10T02:30:18.001Z,98611.50
2018-08-10T02:32:47.163Z,98611.41
2018-08-10T02:35:15.276Z,98620.72
2018-08-10T02:37:44.070Z,98611.48
2018-08-10T02:40:17.762Z,98611.64
2018-08-10T02:42:46.801Z,98608.58
2018-08-10T02:45:15.392Z,98614.68
2018-08-10T02:47:44.489Z,98614.59
2018-08-10T02:50:13.278Z,98609.08
2018-08-10T02:52:41.172Z,98615.83
2018-08-10T02:55:10.742Z,98618.30
2018-08-10T02:57:39.508Z,98622.88
2018-08-10T03:00:11.152Z,98625.41
2018-08-10T03:02:40.756Z,98621.73
2018-08-10T03:05:10.364Z,98625.41
2018-08-10T03:07:39.446Z,98631.55
2018-08-10T03:10:10.376Z,98637.63
2018-08-10T03:12:39.173Z,98640.27
2018-08-10T03:15:09.936Z,98635.05
2018-08-10T03:17:38.616Z,98634.75
2018-08-10T03:20:08.494Z,98640.69
2018-08-10T03:22:37.363Z,98638.98
2018-08-10T03:25:41.636Z,98636.26
2018-08-10T03:28:11.104Z,98639.83
2018-08-10T03:30:39.851Z,98652.55
2018-08-10T03:33:08.615Z,98647.38
2018-08-10T03:35:38.758Z,98647.16
2018-08-10T03:38:07.521Z,98655.94
2018-08-10T03:40:36.996Z,98658.03
2018-08-10T03:43:05.892Z,98666.03
2018-08-10T03:45:34.571Z,98668.30
2018-08-10T03:48:03.507Z,98664.92
2018-08-10T03:50:32.058Z,98667.57
2018-08-10T03:53:01.347Z,98676.58
2018-08-10T03:55:30.656Z,98681.70
2018-08-10T03:57:59.446Z,98680.28
2018-08-10T04:00:28.216Z,98687.33
2018-08-10T04:02:57.163Z,98682.20
2018-08-10T04:05:25.952Z,98685.49
2018-08-10T04:07:54.552Z,98685.66
2018-08-10T04:10:23.290Z,98687.61
2018-08-10T04:12:52.020Z,98689.61
2018-08-10T04:15:20.922Z,98692.81
2018-08-10T04:17:49.713Z,98697.41
2018-08-10T04:20:18.711Z,98697.80
2018-08-10T04:22:47.610Z,98697.48
2018-08-10T04:25:16.297Z,98709.08
2018-08-10T04:27:45.074Z,98712.56
2018-08-10T04:30:14.448Z,98712.34
2018-08-10T04:32:43.028Z,98724.23
2018-08-10T04:35:12.047Z,98727.92
2018-08-10T04:37:41.198Z,98732.49
2018-08-10T04:40:11.384Z,98732.23
2018-08-10T04:42:40.914Z,98733.67
2018-08-10T04:45:10.256Z,98738.97
2018-08-10T04:47:44.247Z,98745.94
2018-08-10T04:50:13.146Z,98752.69
2018-08-10T04:52:42.134Z,98760.48
2018-08-10T04:55:11.026Z,98767.23
2018-08-10T04:57:39.683Z,98769.41
2018-08-10T05:00:12.339Z,98772.61
2018-08-10T05:02:41.081Z,98776.05
2018-08-10T05:05:10.939Z,98781.69
2018-08-10T05:07:40.788Z,98778.95
2018-08-10T05:10:10.918Z,98783.28
2018-08-10T05:12:40.707Z,98791.23
2018-08-10T05:15:10.424Z,98790.76
2018-08-10T05:17:39.638Z,98809.00
2018-08-10T05:20:10.831Z,98811.12
2018-08-10T05:22:40.277Z,98821.64
2018-08-10T05:25:08.939Z,98822.75
2018-08-10T05:27:38.202Z,98825.66
2018-08-10T05:30:08.792Z,98823.94
2018-08-10T05:32:38.471Z,98833.28
2018-08-10T05:35:08.222Z,98831.81
2018-08-10T05:37:36.977Z,98839.05
2018-08-10T05:40:07.131Z,98844.84
2018-08-10T05:42:36.563Z,98854.79
2018-08-10T05:45:06.256Z,98855.98
2018-08-10T05:47:35.160Z,98864.59
2018-08-10T05:50:04.457Z,98862.59
2018-08-10T05:52:33.307Z,98864.61
2018-08-10T05:55:02.128Z,98856.61
2018-08-10T05:57:31.126Z,98868.35
2018-08-10T06:00:00.368Z,98868.87
2018-08-10T06:02:29.469Z,98869.34
2018-08-10T06:04:58.942Z,98872.88
2018-08-10T06:07:27.613Z,98861.78
2018-08-10T06:09:56.242Z,98872.36
2018-08-10T06:12:25.521Z,98869.92
2018-08-10T06:14:54.322Z,98874.88
2018-08-10T06:17:23.228Z,98870.69
2018-08-10T06:19:51.918Z,98875.16
2018-08-10T06:22:20.602Z,98882.20
2018-08-10T06:24:49.214Z,98877.47
2018-08-10T06:27:18.004Z,98876.73
2018-08-10T06:29:46.792Z,98886.16
2018-08-10T06:32:16.460Z,98887.70
2018-08-10T06:34:45.827Z,98885.36
2018-08-10T06:37:15.082Z,98889.78
2018-08-10T06:39:43.960Z,98885.88
2018-08-10T06:42:12.834Z,98895.73
2018-08-10T06:44:41.333Z,98892.06
2018-08-10T06:47:09.297Z,98896.64
2018-08-10T06:49:37.132Z,98895.22
2018-08-10T06:52:05.124Z,98898.28
2018-08-10T06:54:33.000Z,98899.45
2018-08-10T06:57:00.797Z,98896.06
2018-08-10T06:59:28.558Z,98903.56
2018-08-10T07:01:56.437Z,98912.35
2018-08-10T07:04:24.443Z,98906.55
2018-08-10T07:06:52.339Z,98909.04
2018-08-10T07:09:20.967Z,98912.09
2018-08-10T07:11:50.429Z,98914.57
2018-08-10T07:14:19.389Z,98910.77
2018-08-10T07:16:48.143Z,98912.88
2018-08-10T07:19:16.837Z,98906.91
2018-08-10T07:21:46.385Z,98901.28
2018-08-10T07:24:15.313Z,98899.02
2018-08-10T07:26:44.128Z,98903.78
2018-08-10T07:29:12.928Z,98905.64
2018-08-10T07:31:41.455Z,98906.73
2018-08-10T07:34:10.219Z,98903.67
2018-08-10T07:36:39.301Z,98917.42
2018-08-10T07:39:10.344Z,98910.09
2018-08-10T07:41:39.858Z,98909.09
2018-08-10T07:44:09.258Z,98912.30
2018-08-10T07:46:38.423Z,98911.64
2018-08-10T07:49:07.698Z,98912.75
2018-08-10T07:51:36.368Z,98914.80
2018-08-10T07:54:05.085Z,98907.42
2018-08-10T07:56:33.790Z,98913.23
2018-08-10T07:59:02.675Z,98917.68
2018-08-10T08:01:31.318Z,98906.25
2018-08-10T08:03:59.963Z,98904.17
2018-08-10T08:06:28.599Z,98909.42
2018-08-10T08:08:57.448Z,98903.55
2018-08-10T08:11:26.060Z,98902.34
2018-08-10T08:13:55.646Z,98913.80
2018-08-10T08:16:24.470Z,98908.64
2018-08-10T08:18:53.339Z,98904.11
2018-08-10T08:21:22.292Z,98909.62
2018-08-10T08:23:51.758Z,98904.09
2018-08-10T08:26:20.613Z,98918.85
2018-08-10T08:28:49.329Z,98912.05
2018-08-10T08:31:18.425Z,98907.69
2018-08-10T08:33:58.400Z,98915.58
2018-08-10T08:36:27.964Z,98907.47
2018-08-10T08:40:11.128Z,98906.60
2018-08-10T08:42:40.264Z,98907.02
2018-08-10T08:46:18.914Z,98900.55
2018-08-10T08:48:48.841Z,98906.47
2018-08-10T08:51:21.039Z,98902.03
2018-08-10T08:54:00.204Z,98898.83
2018-08-10T08:56:36.635Z,98895.83
2018-08-10T08:59:06.258Z,98900.56
2018-08-10T09:01:35.423Z,98898.22
2018-08-10T09:05:05.410Z,98890.31
2018-08-10T09:07:35.035Z,98895.84
2018-08-10T09:10:08.434Z,98884.84
2018-08-10T09:12:37.354Z,98889.21
2018-08-10T09:15:09.193Z,98882.73
2018-08-10T09:17:38.216Z,98882.44
2018-08-10T09:20:07.870Z,98881.17
2018-08-10T09:22:36.476Z,98882.88
2018-08-10T09:25:21.360Z,98880.21
2018-08-10T09:27:49.949Z,98883.31
2018-08-10T09:30:19.902Z,98881.52
2018-08-10T09:32:48.665Z,98886.20
2018-08-10T09:35:17.535Z,98874.23
2018-08-10T09:37:46.435Z,98878.14
2018-08-10T09:40:16.569Z,98876.91
2018-08-10T09:42:45.872Z,98877.41
2018-08-10T09:45:14.422Z,98870.38
2018-08-10T09:47:43.048Z,98864.00
2018-08-10T09:50:11.744Z,98861.17
2018-08-10T09:52:41.139Z,98862.05
2018-08-10T09:55:17.494Z,98863.47
2018-08-10T09:57:45.250Z,98861.81
2018-08-10T10:00:20.216Z,98869.72
2018-08-10T10:02:54.260Z,98869.58
2018-08-10T10:05:25.368Z,98867.77
2018-08-10T10:07:55.866Z,98867.86
2018-08-10T10:10:25.041Z,98853.08
2018-08-10T10:12:54.149Z,98858.19
2018-08-10T10:15:22.380Z,98854.70
2018-08-10T10:17:50.426Z,98852.72
2018-08-10T10:20:18.291Z,98850.68
2018-08-10T10:22:47.028Z,98841.25
2018-08-10T10:25:15.250Z,98843.48
2018-08-10T10:27:43.120Z,98834.66
2018-08-10T10:30:11.133Z,98840.31
2018-08-10T10:32:39.083Z,98825.91
2018-08-10T10:35:08.058Z,98824.86
2018-08-10T10:37:35.819Z,98826.06
2018-08-10T10:40:03.765Z,98826.77
2018-08-10T10:42:32.074Z,98828.72
2018-08-10T10:44:59.993Z,98824.29
2018-08-10T10:47:27.839Z,98822.31
2018-08-10T10:49:55.818Z,98827.47
2018-08-10T10:52:24.188Z,98827.42
2018-08-10T10:54:52.168Z,98819.27
2018-08-10T10:57:20.533Z,98817.57
2018-08-10T10:59:48.723Z,98816.89
2018-08-10T11:02:17.303Z,98812.42
2018-08-10T11:04:45.255Z,98805.64
2018-08-10T11:07:13.110Z,98806.23
2018-08-10T11:09:41.030Z,98807.13
2018-08-10T11:12:09.216Z,98803.48
2018-08-10T11:14:37.382Z,98795.08
2018-08-10T11:17:05.204Z,98800.54
2018-08-10T11:19:33.002Z,98801.46
2018-08-10T11:22:01.136Z,98805.77
2018-08-10T11:24:28.925Z,98799.59
2018-08-10T11:26:56.708Z,98795.14
2018-08-10T11:29:24.565Z,98788.80
2018-08-10T11:31:53.439Z,98788.39
2018-08-10T11:34:21.365Z,98790.17
2018-08-10T11:36:49.509Z,98794.70
2018-08-10T11:39:17.850Z,98778.41
2018-08-10T11:41:46.656Z,98784.22
2018-08-10T11:44:14.604Z,98782.70
2018-08-10T11:46:42.520Z,98791.66
2018-08-10T11:49:11.279Z,98784.73
2018-08-10T11:51:39.204Z,98792.80
2018-08-10T11:54:07.278Z,98786.66
2018-08-10T11:56:35.418Z,98779.47
2018-08-10T11:59:03.888Z,98782.13
2018-08-10T12:01:31.730Z,98781.87
2018-08-10T12:03:59.859Z,98779.16
2018-08-10T12:06:27.780Z,98772.27
2018-08-10T12:08:55.844Z,98765.50
2018-08-10T12:11:24.555Z,98768.53
2018-08-10T12:13:52.380Z,98763.99
2018-08-10T12:16:21.344Z,98774.34
2018-08-10T12:18:50.918Z,98768.28
2018-08-10T12:21:19.739Z,98764.13
2018-08-10T12:23:48.523Z,98761.34
2018-08-10T12:26:17.605Z,98761.38
2018-08-10T12:28:46.510Z,98762.81
2018-08-10T12:31:16.091Z,98761.73
2018-08-10T12:33:45.140Z,98763.12
2018-08-10T12:36:14.287Z,98763.53
2018-08-10T12:38:43.254Z,98755.30
2018-08-10T12:41:11.881Z,98754.22
2018-08-10T12:43:41.070Z,98752.63
2018-08-10T12:46:10.408Z,98747.29
2018-08-10T12:48:39.102Z,98750.86
2018-08-10T12:51:08.024Z,98751.20
2018-08-10T12:53:36.970Z,98739.52
2018-08-10T12:56:06.605Z,98739.59
2018-08-10T12:58:35.511Z,98739.33
2018-08-10T13:01:03.560Z,98736.75
2018-08-10T13:03:31.500Z,98741.10
2018-08-10T13:05:59.229Z,98737.05
2018-08-10T13:08:27.233Z,98733.58
2018-08-10T13:10:55.017Z,98736.14
2018-08-10T13:13:22.929Z,98731.09
2018-08-10T13:15:50.945Z,98721.94
2018-08-10T13:18:19.570Z,98719.19
2018-08-10T13:20:47.600Z,98721.21
2018-08-10T13:23:15.478Z,98720.06
2018-08-10T13:25:43.388Z,98721.97
2018-08-10T13:28:12.377Z,98724.25
2018-08-10T13:30:41.384Z,98723.22
2018-08-10T13:33:10.910Z,98726.45
2018-08-10T13:35:39.710Z,98723.13
2018-08-10T13:38:09.103Z,98720.69
2018-08-10T13:40:37.692Z,98720.73
2018-08-10T13:43:06.506Z,98724.77
2018-08-10T13:45:36.266Z,98720.30
2018-08-10T13:48:05.265Z,98713.70
2018-08-10T13:50:33.267Z,98713.59
2018-08-10T13:53:01.956Z,98712.69
2018-08-10T13:55:30.947Z,98707.37
2018-08-10T13:57:59.795Z,98710.69
2018-08-10T14:00:28.554Z,98715.71
2018-08-10T14:02:57.396Z,98709.40
2018-08-10T14:05:26.481Z,98715.34
2018-08-10T14:07:55.183Z,98713.75
2018-08-10T14:10:24.464Z,98705.62
2018-08-10T14:12:53.524Z,98702.90
2018-08-10T14:15:22.959Z,98697.16
2018-08-10T14:17:51.722Z,98699.28
2018-08-10T14:20:21.252Z,98694.33
2018-08-10T14:22:50.390Z,98698.73
2018-08-10T14:25:19.805Z,98693.05
2018-08-10T14:27:48.771Z,98698.05
2018-08-10T14:30:18.215Z,98690.87
2018-08-10T14:32:46.950Z,98687.84
2018-08-10T14:35:14.807Z,98688.19
2018-08-10T14:37:44.006Z,98692.27
2018-08-10T14:40:14.257Z,98691.12
2018-08-10T14:42:43.476Z,98687.86
2018-08-10T14:45:13.536Z,98690.67
2018-08-10T14:47:41.614Z,98690.15
2018-08-10T14:50:10.825Z,98682.86
2018-08-10T14:52:39.644Z,98676.86
2018-08-10T14:55:11.480Z,98673.89
2018-08-10T14:57:39.552Z,98678.81
2018-08-10T15:00:11.071Z,98677.01
2018-08-10T15:02:39.011Z,98674.41
2018-08-10T15:05:07.201Z,98667.84
2018-08-10T15:07:36.159Z,98668.47
2018-08-10T15:10:04.261Z,98670.88
2018-08-10T15:12:32.435Z,98666.11
2018-08-10T15:15:01.287Z,98657.09
2018-08-10T15:17:30.112Z,98664.61
2018-08-10T15:19:58.012Z,98653.14
2018-08-10T15:22:27.185Z,98650.33
2018-08-10T15:24:56.153Z,98647.75
2018-08-10T15:27:25.009Z,98649.73
2018-08-10T15:29:53.780Z,98653.14
2018-08-10T15:32:22.851Z,98647.80
2018-08-10T15:34:51.991Z,98654.69
2018-08-10T15:37:20.260Z,98645.48
2018-08-10T15:39:49.467Z,98643.42
2018-08-10T15:42:18.732Z,98645.98
2018-08-10T15:44:47.861Z,98649.58
2018-08-10T15:47:17.105Z,98643.31
2018-08-10T15:49:46.052Z,98648.50
2018-08-10T15:52:14.969Z,98642.00
2018-08-10T15:54:43.937Z,98642.41
2018-08-10T15:57:13.650Z,98637.66
2018-08-10T15:59:42.467Z,98639.66
2018-08-10T16:02:11.307Z,98639.07
2018-08-10T16:04:40.047Z,98635.68
2018-08-10T16:07:09.311Z,98634.66
2018-08-10T16:09:38.310Z,98635.03
2018-08-10T16:12:07.414Z,98637.46
2018-08-10T16:14:36.569Z,98635.00
2018-08-10T16:17:05.513Z,98636.69
2018-08-10T16:19:36.195Z,98635.52
2018-08-10T16:22:05.391Z,98628.07
2018-08-10T16:24:34.314Z,98620.52
2018-08-10T16:27:03.289Z,98622.23
2018-08-10T16:29:32.381Z,98624.62
2018-08-10T16:32:01.272Z,98623.22
2018-08-10T16:34:30.378Z,98626.98
2018-08-10T16:36:59.190Z,98630.81
2018-08-10T16:39:27.962Z,98622.00
2018-08-10T16:41:56.991Z,98618.67
2018-08-10T16:44:27.588Z,98624.77
2018-08-10T16:46:56.571Z,98616.66
2018-08-10T16:49:25.756Z,98616.08
2018-08-10T16:51:54.688Z,98617.19
2018-08-10T16:54:24.191Z,98607.84
2018-08-10T16:56:53.435Z,98614.64
2018-08-10T16:59:21.267Z,98607.09
2018-08-10T17:01:50.267Z,98612.34
2018-08-10T17:04:19.112Z,98616.03
2018-08-10T17:06:47.881Z,98615.17
2018-08-10T17:09:16.634Z,98617.10
2018-08-10T17:11:46.316Z,98612.15
2018-08-10T17:14:15.132Z,98612.78
2018-08-10T17:16:45.261Z,98614.11
2018-08-10T17:19:14.410Z,98614.39
2018-08-10T17:21:43.274Z,98611.47
2018-08-10T17:24:11.957Z,98612.23
2018-08-10T17:26:40.982Z,98605.86
2018-08-10T17:29:09.642Z,98608.69
2018-08-10T17:31:38.345Z,98603.80
2018-08-10T17:34:07.061Z,98605.89
2018-08-10T17:36:36.066Z,98603.63
2018-08-10T17:39:09.154Z,98603.67
2018-08-10T17:41:38.182Z,98599.36
2018-08-10T17:44:07.042Z,98604.63
2018-08-10T17:46:35.852Z,98604.45
2018-08-10T17:49:05.154Z,98604.77
2018-08-10T17:51:33.991Z,98609.19
2018-08-10T17:54:02.851Z,98608.04
2018-08-10T17:56:31.795Z,98611.02
2018-08-10T17:59:01.338Z,98609.62
2018-08-10T18:01:30.399Z,98610.27
2018-08-10T18:03:59.107Z,98611.65
2018-08-10T18:06:27.803Z,98612.33
2018-08-10T18:08:57.000Z,98614.28
2018-08-10T18:11:26.170Z,98614.78
2018-08-10T18:13:55.292Z,98612.80
2018-08-10T18:16:24.485Z,98617.16
2018-08-10T18:18:53.495Z,98618.80
2018-08-10T18:21:23.030Z,98614.67
2018-08-10T18:23:52.271Z,98614.78
2018-08-10T18:26:21.161Z,98621.22
2018-08-10T18:28:50.552Z,98620.77
2018-08-10T18:31:20.154Z,98622.24
2018-08-10T18:33:48.855Z,98624.19
2018-08-10T18:36:17.546Z,98627.81
2018-08-10T18:38:46.596Z,98629.67
2018-08-10T18:41:15.572Z,98631.77
2018-08-10T18:43:45.257Z,98626.53
2018-08-10T18:46:14.904Z,98632.06
2018-08-10T18:48:43.506Z,98633.77
2018-08-10T18:51:12.371Z,98635.63
2018-08-10T18:53:41.245Z,98645.30
2018-08-10T18:56:11.233Z,98638.94
2018-08-10T18:58:40.423Z,98643.98
2018-08-10T19:01:09.498Z,98645.92
2018-08-10T19:03:38.410Z,98645.47
2018-08-10T19:06:07.231Z,98648.80
2018-08-10T19:08:36.347Z,98647.90
2018-08-10T19:11:05.948Z,98648.12
2018-08-10T19:13:34.847Z,98652.49
2018-08-10T19:16:03.800Z,98645.50
2018-08-10T19:18:32.587Z,98652.37
2018-08-10T19:21:01.570Z,98645.88
2018-08-10T19:23:30.692Z,98649.44
2018-08-10T19:25:59.603Z,98652.52
2018-08-10T19:28:28.436Z,98655.62
2018-08-10T19:30:57.303Z,98659.80
2018-08-10T19:33:26.721Z,98657.73
2018-08-10T19:35:55.649Z,98654.99
2018-08-10T19:38:24.450Z,98660.02
2018-08-10T19:40:53.377Z,98660.47
2018-08-10T19:43:22.411Z,98665.61
2018-08-10T19:45:51.272Z,98663.43
2018-08-10T19:48:20.245Z,98665.50
2018-08-10T19:50:49.203Z,98668.00
2018-08-10T19:53:18.102Z,98677.25
2018-08-10T19:55:47.639Z,98664.09
2018-08-10T19:58:16.555Z,98663.84
2018-08-10T20:00:46.107Z,98663.81
2018-08-10T20:03:15.703Z,98664.27
2018-08-10T20:05:44.530Z,98662.64
2018-08-10T20:08:13.849Z,98664.17
2018-08-10T20:10:42.922Z,98661.95
2018-08-10T20:13:11.807Z,98665.17
2018-08-10T20:15:41.531Z,98667.25
2018-08-10T20:18:10.774Z,98659.05
2018-08-10T20:20:39.567Z,98659.76
2018-08-10T20:23:08.283Z,98666.97
2018-08-10T20:25:37.372Z,98664.16
2018-08-10T20:28:06.551Z,98665.38
2018-08-10T20:30:35.882Z,98667.55
2018-08-10T20:33:04.932Z,98665.27
2018-08-10T20:35:34.159Z,98671.47
2018-08-10T20:38:04.052Z,98664.51
2018-08-10T20:40:32.788Z,98663.27
2018-08-10T20:43:01.973Z,98666.21
2018-08-10T20:45:31.064Z,98669.81
2018-08-10T20:48:01.368Z,98673.81
2018-08-10T20:50:30.562Z,98672.23
2018-08-10T20:52:59.738Z,98674.27
2018-08-10T20:55:28.628Z,98671.14
2018-08-10T20:57:58.220Z,98676.94
2018-08-10T21:00:27.416Z,98666.95
2018-08-10T21:02:56.558Z,98671.30
2018-08-10T21:05:25.281Z,98669.14
2018-08-10T21:07:54.077Z,98672.16
2018-08-10T21:10:23.265Z,98668.95
2018-08-10T21:12:52.179Z,98664.23
2018-08-10T21:15:21.002Z,98662.94
2018-08-10T21:17:49.972Z,98666.64
2018-08-10T21:20:18.934Z,98662.47
2018-08-10T21:22:47.813Z,98662.70
2018-08-10T21:25:16.589Z,98658.87
2018-08-10T21:27:45.306Z,98665.44
2018-08-10T21:30:17.121Z,98662.15
2018-08-10T21:32:45.852Z,98661.04
2018-08-10T21:35:14.653Z,98660.04
2018-08-10T21:37:44.191Z,98659.15
2018-08-10T21:40:13.129Z,98662.43
2018-08-10T21:42:43.377Z,98661.47
2018-08-10T21:45:12.463Z,98662.59
2018-08-10T21:47:41.267Z,98659.53
2018-08-10T21:50:12.670Z,98664.16
2018-08-10T21:52:42.708Z,98663.59
2018-08-10T21:55:12.088Z,98666.20
2018-08-10T21:57:41.101Z,98666.66
2018-08-10T22:00:17.253Z,98656.44
2018-08-10T22:02:46.736Z,98665.33
2018-08-10T22:05:16.076Z,98665.48
2018-08-10T22:07:44.879Z,98662.34
2018-08-10T22:10:13.503Z,98671.36
2018-08-10T22:12:47.815Z,98662.83
2018-08-10T22:15:22.237Z,98666.44
2018-08-10T22:17:56.069Z,98662.27
2018-08-10T22:20:25.033Z,98670.08
2018-08-10T22:22:54.178Z,98665.27
2018-08-10T22:25:23.102Z,98673.30
2018-08-10T22:27:51.869Z,98676.03
2018-08-10T22:30:20.493Z,98674.17
2018-08-10T22:32:49.222Z,98678.64
2018-08-10T22:35:18.552Z,98674.55
2018-08-10T22:37:47.863Z,98679.39
2018-08-10T22:40:16.468Z,98675.69
2018-08-10T22:42:45.085Z,98681.36
2018-08-10T22:45:13.880Z,98674.76
2018-08-10T22:47:43.439Z,98668.36
2018-08-10T22:50:12.032Z,98678.97
2018-08-10T22:52:40.628Z,98675.13
2018-08-10T22:55:09.411Z,98679.34
2018-08-10T22:57:38.277Z,98680.52
2018-08-10T23:00:07.085Z,98679.94
2018-08-10T23:02:36.008Z,98680.08
2018-08-10T23:05:05.446Z,98676.73
2018-08-10T23:07:34.234Z,98676.50
2018-08-10T23:10:04.937Z,98673.14
2018-08-10T23:12:33.898Z,98676.88
2018-08-10T23:15:03.222Z,98680.38
2018-08-10T23:17:32.048Z,98671.07
2018-08-10T23:20:01.353Z,98676.37
2018-08-10T23:22:30.288Z,98669.22
2018-08-10T23:24:59.767Z,98666.39
2018-08-10T23:27:28.741Z,98668.02
2018-08-10T23:29:57.542Z,98667.26
2018-08-10T23:32:27.166Z,98675.01
2018-08-10T23:34:55.858Z,98677.99
2018-08-10T23:37:24.662Z,98678.79
2018-08-10T23:39:54.213Z,98683.47
2018-08-10T23:42:23.071Z,98683.79
2018-08-10T23:44:51.827Z,98694.77
2018-08-10T23:47:20.732Z,98687.48
2018-08-10T23:49:49.634Z,98684.77
2018-08-10T23:52:18.321Z,98685.73
2018-08-10T23:54:47.146Z,98684.63
2018-08-10T23:57:16.018Z,98685.57
2018-08-10T23:59:45.158Z,98680.00
